メインページ
METAR-TAF:

METAR-TAF

空港 :

コルドバ, アルゼンチン

緯度: 31-19S, 経度: 064-13W, 海抜: 484m

現時点の気象観測

当レポートは30分前の06:00(UTC)に作成
変向風 3kt
気温 16°C
湿度 94%
気圧 1020 hPa
視程: 5000m
高度2500ftの雲は散在している
高度10000ftの千切れ雲あり
高度800ftの千切れ雲あり
高度1000ftの曇り
霧雨, 靄

METAR: SACO 200600Z 32003KT 9999 SCT025 BKN100 16/15 Q1020 BECGM VRB03KT 5000 DZ BR BKN008 OVC010

時間: 03:30 (06:30 UTC)

予報

当レポートは1時間30分前の05:00(UTC)に作成
予報は20日の 06時(UTC)から 21日の 06時(UTC)まで有効
変向風 3kt
視程: 5000m
高度800ftの千切れ雲あり
高度1000ftの曇り
霧雨, 靄
20日の 08時(UTC)から 20日の 12時(UTC)まで一時的に
南東の風 5kt
視程: 3000m
高度500ftの千切れ雲あり
高度1000ftの曇り
雨, 霧雨, 靄
20日の 12時(UTC)から 20日の 15時(UTC)まで徐々に
北東の風 10kt
視程: 5000m
高度1200ftの千切れ雲あり
高度2000ftの曇り
霧雨

TAF: SACO 200500Z 2006/2106 VRB03KT 5000 DZ BR BKN008 OVC010 TX21/2019Z TN14/2010Z TEMPO 2008/2012 14005KT 3000 RADZ BR BKN005 OVC010 BECMG 2012/2015 05010KT 5000 DZ BKN012 OVC020

4,000以上の空港の気象観測と天気予報(METAR報とTAF報)

利用可能な観測所は地図上に黄色い丸と赤い丸で示す。

丸の上にカーソルを重ねると観測所名を参照できる。

次にクリックすると気象観測と天気予報を参照できる。

マップの切り替え:黒色「×」印の緑ボタンをクリックして拡大、「-」印の緑ボタンをクリックして縮小、緑色の三角印をクリックして隣りの地図に切り替え


METAR-TAF: